sensor_id;sensor_type;location;lat;lon;timestamp;P1;durP1;ratioP1;P2;durP2;ratioP2
34828;SDS011;21042;47.620;12.188;2023-06-24T00:01:34;4.93;;;3.55;;
34828;SDS011;21042;47.620;12.188;2023-06-24T00:04:01;5.10;;;3.60;;
34828;SDS011;21042;47.620;12.188;2023-06-24T00:06:28;5.97;;;3.67;;
34828;SDS011;21042;47.620;12.188;2023-06-24T00:08:54;5.70;;;3.35;;
34828;SDS011;21042;47.620;12.188;2023-06-24T00:11:27;6.65;;;4.20;;
34828;SDS011;21042;47.620;12.188;2023-06-24T00:13:56;7.57;;;4.25;;
34828;SDS011;21042;47.620;12.188;2023-06-24T00:16:23;7.00;;;3.85;;
34828;SDS011;21042;47.620;12.188;2023-06-24T00:18:53;6.45;;;4.70;;
34828;SDS011;21042;47.620;12.188;2023-06-24T00:21:24;4.50;;;3.60;;
34828;SDS011;21042;47.620;12.188;2023-06-24T00:23:56;6.75;;;3.95;;
34828;SDS011;21042;47.620;12.188;2023-06-24T00:26:30;4.93;;;3.47;;
34828;SDS011;21042;47.620;12.188;2023-06-24T00:28:58;7.10;;;3.50;;
34828;SDS011;21042;47.620;12.188;2023-06-24T00:31:25;4.90;;;3.47;;
34828;SDS011;21042;47.620;12.188;2023-06-24T00:33:52;7.30;;;4.22;;
34828;SDS011;21042;47.620;12.188;2023-06-24T00:36:19;5.47;;;3.60;;
34828;SDS011;21042;47.620;12.188;2023-06-24T00:38:48;5.43;;;3.70;;
34828;SDS011;21042;47.620;12.188;2023-06-24T00:43:45;10.45;;;4.97;;
34828;SDS011;21042;47.620;12.188;2023-06-24T00:48:40;9.38;;;4.20;;
34828;SDS011;21042;47.620;12.188;2023-06-24T00:51:07;6.47;;;4.20;;
34828;SDS011;21042;47.620;12.188;2023-06-24T00:53:33;6.93;;;4.22;;
34828;SDS011;21042;47.620;12.188;2023-06-24T00:56:00;7.50;;;3.58;;
34828;SDS011;21042;47.620;12.188;2023-06-24T00:58:30;6.32;;;3.85;;
34828;SDS011;21042;47.620;12.188;2023-06-24T01:00:58;6.45;;;4.13;;
34828;SDS011;21042;47.620;12.188;2023-06-24T01:03:25;6.97;;;4.28;;
34828;SDS011;21042;47.620;12.188;2023-06-24T01:08:22;7.05;;;4.10;;
34828;SDS011;21042;47.620;12.188;2023-06-24T01:10:50;6.95;;;4.13;;
34828;SDS011;21042;47.620;12.188;2023-06-24T01:13:19;8.07;;;4.60;;
34828;SDS011;21042;47.620;12.188;2023-06-24T01:15:48;7.35;;;4.18;;
34828;SDS011;21042;47.620;12.188;2023-06-24T01:18:24;7.88;;;4.00;;
34828;SDS011;21042;47.620;12.188;2023-06-24T01:21:19;11.60;;;5.18;;
34828;SDS011;21042;47.620;12.188;2023-06-24T01:26:39;7.65;;;4.40;;
34828;SDS011;21042;47.620;12.188;2023-06-24T01:32:26;5.60;;;4.13;;
34828;SDS011;21042;47.620;12.188;2023-06-24T01:35:06;12.68;;;4.28;;
34828;SDS011;21042;47.620;12.188;2023-06-24T01:37:47;7.32;;;4.80;;
34828;SDS011;21042;47.620;12.188;2023-06-24T01:40:33;9.40;;;4.90;;
34828;SDS011;21042;47.620;12.188;2023-06-24T01:43:05;9.32;;;4.13;;
34828;SDS011;21042;47.620;12.188;2023-06-24T01:45:44;8.27;;;4.40;;
34828;SDS011;21042;47.620;12.188;2023-06-24T01:48:15;8.13;;;4.78;;
34828;SDS011;21042;47.620;12.188;2023-06-24T01:51:19;7.70;;;4.20;;
34828;SDS011;21042;47.620;12.188;2023-06-24T01:53:42;4.90;;;3.78;;
34828;SDS011;21042;47.620;12.188;2023-06-24T01:56:15;6.65;;;3.72;;
34828;SDS011;21042;47.620;12.188;2023-06-24T01:59:00;9.82;;;4.22;;
34828;SDS011;21042;47.620;12.188;2023-06-24T02:01:28;6.80;;;4.30;;
34828;SDS011;21042;47.620;12.188;2023-06-24T02:03:57;9.15;;;4.45;;
34828;SDS011;21042;47.620;12.188;2023-06-24T02:06:26;6.60;;;3.97;;
34828;SDS011;21042;47.620;12.188;2023-06-24T02:08:57;10.45;;;3.88;;
34828;SDS011;21042;47.620;12.188;2023-06-24T02:11:25;8.50;;;3.58;;
34828;SDS011;21042;47.620;12.188;2023-06-24T02:13:54;6.35;;;3.97;;
34828;SDS011;21042;47.620;12.188;2023-06-24T02:18:49;9.90;;;3.65;;
34828;SDS011;21042;47.620;12.188;2023-06-24T02:21:17;8.85;;;3.72;;
34828;SDS011;21042;47.620;12.188;2023-06-24T02:23:46;6.32;;;4.00;;
34828;SDS011;21042;47.620;12.188;2023-06-24T02:26:14;4.57;;;3.47;;
34828;SDS011;21042;47.620;12.188;2023-06-24T02:28:42;7.90;;;3.92;;
34828;SDS011;21042;47.620;12.188;2023-06-24T02:31:12;5.90;;;4.28;;
34828;SDS011;21042;47.620;12.188;2023-06-24T02:33:40;7.88;;;3.88;;
34828;SDS011;21042;47.620;12.188;2023-06-24T02:36:08;7.82;;;4.13;;
34828;SDS011;21042;47.620;12.188;2023-06-24T02:38:35;6.60;;;4.22;;
34828;SDS011;21042;47.620;12.188;2023-06-24T02:43:31;5.55;;;3.70;;
34828;SDS011;21042;47.620;12.188;2023-06-24T02:45:59;7.93;;;3.70;;
34828;SDS011;21042;47.620;12.188;2023-06-24T02:48:29;6.45;;;3.45;;
34828;SDS011;21042;47.620;12.188;2023-06-24T02:50:58;7.18;;;3.97;;
34828;SDS011;21042;47.620;12.188;2023-06-24T02:53:25;8.30;;;4.57;;
34828;SDS011;21042;47.620;12.188;2023-06-24T02:55:54;6.25;;;3.80;;
34828;SDS011;21042;47.620;12.188;2023-06-24T02:58:23;11.05;;;4.50;;
34828;SDS011;21042;47.620;12.188;2023-06-24T03:00:59;8.98;;;4.70;;
34828;SDS011;21042;47.620;12.188;2023-06-24T03:03:30;7.32;;;4.10;;
34828;SDS011;21042;47.620;12.188;2023-06-24T03:05:58;7.18;;;4.10;;
34828;SDS011;21042;47.620;12.188;2023-06-24T03:08:28;6.50;;;3.72;;
34828;SDS011;21042;47.620;12.188;2023-06-24T03:10:57;11.02;;;4.32;;
34828;SDS011;21042;47.620;12.188;2023-06-24T03:13:27;6.07;;;3.65;;
34828;SDS011;21042;47.620;12.188;2023-06-24T03:16:14;5.88;;;3.67;;
34828;SDS011;21042;47.620;12.188;2023-06-24T03:19:16;5.45;;;4.00;;
34828;SDS011;21042;47.620;12.188;2023-06-24T03:24:12;7.85;;;4.18;;
34828;SDS011;21042;47.620;12.188;2023-06-24T03:26:41;6.10;;;4.18;;
34828;SDS011;21042;47.620;12.188;2023-06-24T03:29:11;8.95;;;4.40;;
34828;SDS011;21042;47.620;12.188;2023-06-24T03:31:45;6.63;;;4.20;;
34828;SDS011;21042;47.620;12.188;2023-06-24T03:34:17;5.55;;;4.22;;
34828;SDS011;21042;47.620;12.188;2023-06-24T03:36:44;11.38;;;4.47;;
34828;SDS011;21042;47.620;12.188;2023-06-24T03:39:13;7.95;;;4.40;;
34828;SDS011;21042;47.620;12.188;2023-06-24T03:41:40;6.55;;;5.00;;
34828;SDS011;21042;47.620;12.188;2023-06-24T03:44:07;9.52;;;4.35;;
34828;SDS011;21042;47.620;12.188;2023-06-24T03:46:34;8.27;;;4.97;;
34828;SDS011;21042;47.620;12.188;2023-06-24T03:49:01;6.63;;;4.63;;
34828;SDS011;21042;47.620;12.188;2023-06-24T03:53:55;7.35;;;4.78;;
34828;SDS011;21042;47.620;12.188;2023-06-24T03:56:22;7.55;;;4.95;;
34828;SDS011;21042;47.620;12.188;2023-06-24T03:58:49;7.13;;;5.03;;
34828;SDS011;21042;47.620;12.188;2023-06-24T04:01:16;8.05;;;4.18;;
34828;SDS011;21042;47.620;12.188;2023-06-24T04:03:45;6.20;;;4.78;;
34828;SDS011;21042;47.620;12.188;2023-06-24T04:06:13;8.88;;;4.80;;
34828;SDS011;21042;47.620;12.188;2023-06-24T04:08:40;12.77;;;5.90;;
34828;SDS011;21042;47.620;12.188;2023-06-24T04:11:09;7.63;;;5.00;;
34828;SDS011;21042;47.620;12.188;2023-06-24T04:13:36;7.60;;;5.38;;
34828;SDS011;21042;47.620;12.188;2023-06-24T04:16:04;7.47;;;4.78;;
34828;SDS011;21042;47.620;12.188;2023-06-24T04:18:32;8.43;;;4.68;;
34828;SDS011;21042;47.620;12.188;2023-06-24T04:20:59;8.15;;;4.72;;
34828;SDS011;21042;47.620;12.188;2023-06-24T04:23:27;7.43;;;4.13;;
34828;SDS011;21042;47.620;12.188;2023-06-24T04:25:54;6.53;;;4.68;;
34828;SDS011;21042;47.620;12.188;2023-06-24T04:28:21;6.10;;;3.80;;
34828;SDS011;21042;47.620;12.188;2023-06-24T04:30:49;7.32;;;3.55;;
34828;SDS011;21042;47.620;12.188;2023-06-24T04:33:16;4.20;;;3.15;;
34828;SDS011;21042;47.620;12.188;2023-06-24T04:38:13;6.28;;;3.55;;
34828;SDS011;21042;47.620;12.188;2023-06-24T04:40:45;5.13;;;3.83;;
34828;SDS011;21042;47.620;12.188;2023-06-24T04:43:12;5.68;;;3.28;;
34828;SDS011;21042;47.620;12.188;2023-06-24T04:45:39;5.63;;;3.60;;
34828;SDS011;21042;47.620;12.188;2023-06-24T04:48:06;5.75;;;3.22;;
34828;SDS011;21042;47.620;12.188;2023-06-24T04:50:32;4.55;;;3.20;;
34828;SDS011;21042;47.620;12.188;2023-06-24T04:52:59;5.00;;;2.83;;
34828;SDS011;21042;47.620;12.188;2023-06-24T04:55:28;4.57;;;3.35;;
34828;SDS011;21042;47.620;12.188;2023-06-24T04:57:57;4.22;;;2.95;;
34828;SDS011;21042;47.620;12.188;2023-06-24T05:00:24;6.35;;;3.30;;
34828;SDS011;21042;47.620;12.188;2023-06-24T05:02:51;5.38;;;3.45;;
34828;SDS011;21042;47.620;12.188;2023-06-24T05:05:18;4.78;;;2.58;;
34828;SDS011;21042;47.620;12.188;2023-06-24T05:07:47;5.03;;;3.20;;
34828;SDS011;21042;47.620;12.188;2023-06-24T05:10:14;4.78;;;3.28;;
34828;SDS011;21042;47.620;12.188;2023-06-24T05:12:41;7.15;;;3.55;;
34828;SDS011;21042;47.620;12.188;2023-06-24T05:15:07;3.88;;;3.25;;
34828;SDS011;21042;47.620;12.188;2023-06-24T05:17:35;5.38;;;3.17;;
34828;SDS011;21042;47.620;12.188;2023-06-24T05:20:02;5.68;;;3.90;;
34828;SDS011;21042;47.620;12.188;2023-06-24T05:22:30;7.70;;;3.42;;
34828;SDS011;21042;47.620;12.188;2023-06-24T05:24:57;7.90;;;4.10;;
34828;SDS011;21042;47.620;12.188;2023-06-24T05:27:23;5.85;;;3.75;;
34828;SDS011;21042;47.620;12.188;2023-06-24T05:29:50;7.85;;;3.83;;
34828;SDS011;21042;47.620;12.188;2023-06-24T05:32:17;12.23;;;4.50;;
34828;SDS011;21042;47.620;12.188;2023-06-24T05:34:46;7.13;;;3.70;;
34828;SDS011;21042;47.620;12.188;2023-06-24T05:37:13;6.68;;;3.97;;
34828;SDS011;21042;47.620;12.188;2023-06-24T05:39:40;5.50;;;3.80;;
34828;SDS011;21042;47.620;12.188;2023-06-24T05:42:07;5.47;;;3.90;;
34828;SDS011;21042;47.620;12.188;2023-06-24T05:44:34;6.80;;;3.58;;
34828;SDS011;21042;47.620;12.188;2023-06-24T05:47:00;9.15;;;3.63;;
34828;SDS011;21042;47.620;12.188;2023-06-24T05:49:27;8.25;;;4.03;;
34828;SDS011;21042;47.620;12.188;2023-06-24T05:51:54;9.07;;;3.78;;
34828;SDS011;21042;47.620;12.188;2023-06-24T05:54:22;7.93;;;3.80;;
34828;SDS011;21042;47.620;12.188;2023-06-24T05:56:48;9.13;;;3.80;;
34828;SDS011;21042;47.620;12.188;2023-06-24T05:59:15;5.50;;;3.35;;
34828;SDS011;21042;47.620;12.188;2023-06-24T06:01:42;6.55;;;4.18;;
34828;SDS011;21042;47.620;12.188;2023-06-24T06:04:09;6.28;;;3.92;;
34828;SDS011;21042;47.620;12.188;2023-06-24T06:06:35;5.25;;;3.83;;
34828;SDS011;21042;47.620;12.188;2023-06-24T06:09:02;6.90;;;4.18;;
34828;SDS011;21042;47.620;12.188;2023-06-24T06:13:56;7.43;;;3.70;;
34828;SDS011;21042;47.620;12.188;2023-06-24T06:16:23;5.50;;;3.75;;
34828;SDS011;21042;47.620;12.188;2023-06-24T06:18:50;6.93;;;4.00;;
34828;SDS011;21042;47.620;12.188;2023-06-24T06:21:16;6.00;;;3.65;;
34828;SDS011;21042;47.620;12.188;2023-06-24T06:23:43;4.55;;;3.72;;
34828;SDS011;21042;47.620;12.188;2023-06-24T06:26:10;5.80;;;4.55;;
34828;SDS011;21042;47.620;12.188;2023-06-24T06:28:36;8.48;;;4.90;;
34828;SDS011;21042;47.620;12.188;2023-06-24T06:31:03;10.30;;;5.63;;
34828;SDS011;21042;47.620;12.188;2023-06-24T06:33:30;8.80;;;4.82;;
34828;SDS011;21042;47.620;12.188;2023-06-24T06:35:57;10.90;;;5.43;;
34828;SDS011;21042;47.620;12.188;2023-06-24T06:38:23;8.57;;;5.28;;
34828;SDS011;21042;47.620;12.188;2023-06-24T06:40:50;13.38;;;5.35;;
34828;SDS011;21042;47.620;12.188;2023-06-24T06:43:17;7.88;;;5.30;;
34828;SDS011;21042;47.620;12.188;2023-06-24T06:45:44;9.40;;;5.18;;
34828;SDS011;21042;47.620;12.188;2023-06-24T06:48:10;8.38;;;5.35;;
34828;SDS011;21042;47.620;12.188;2023-06-24T06:50:37;10.43;;;4.63;;
34828;SDS011;21042;47.620;12.188;2023-06-24T06:53:04;8.32;;;5.18;;
34828;SDS011;21042;47.620;12.188;2023-06-24T06:55:31;7.38;;;4.70;;
34828;SDS011;21042;47.620;12.188;2023-06-24T06:57:57;9.43;;;4.60;;
34828;SDS011;21042;47.620;12.188;2023-06-24T07:00:24;8.05;;;4.68;;
34828;SDS011;21042;47.620;12.188;2023-06-24T07:02:51;7.85;;;4.20;;
34828;SDS011;21042;47.620;12.188;2023-06-24T07:05:18;6.70;;;4.70;;
34828;SDS011;21042;47.620;12.188;2023-06-24T07:07:45;6.32;;;3.90;;
34828;SDS011;21042;47.620;12.188;2023-06-24T07:10:12;6.70;;;4.68;;
34828;SDS011;21042;47.620;12.188;2023-06-24T07:12:39;5.55;;;4.45;;
34828;SDS011;21042;47.620;12.188;2023-06-24T07:15:06;6.20;;;4.47;;
34828;SDS011;21042;47.620;12.188;2023-06-24T07:17:35;10.18;;;4.57;;
34828;SDS011;21042;47.620;12.188;2023-06-24T07:20:02;6.75;;;4.28;;
34828;SDS011;21042;47.620;12.188;2023-06-24T07:24:57;7.55;;;4.38;;
34828;SDS011;21042;47.620;12.188;2023-06-24T07:27:24;9.07;;;4.43;;
34828;SDS011;21042;47.620;12.188;2023-06-24T07:29:50;9.35;;;4.45;;
34828;SDS011;21042;47.620;12.188;2023-06-24T07:32:17;6.60;;;4.68;;
34828;SDS011;21042;47.620;12.188;2023-06-24T07:34:44;6.65;;;4.22;;
34828;SDS011;21042;47.620;12.188;2023-06-24T07:37:11;10.70;;;4.47;;
34828;SDS011;21042;47.620;12.188;2023-06-24T07:39:49;9.75;;;5.18;;
34828;SDS011;21042;47.620;12.188;2023-06-24T07:42:16;8.32;;;4.53;;
34828;SDS011;21042;47.620;12.188;2023-06-24T07:44:45;8.32;;;4.90;;
34828;SDS011;21042;47.620;12.188;2023-06-24T07:47:12;10.85;;;4.43;;
34828;SDS011;21042;47.620;12.188;2023-06-24T07:49:39;9.65;;;4.55;;
34828;SDS011;21042;47.620;12.188;2023-06-24T07:52:06;6.88;;;4.20;;
34828;SDS011;21042;47.620;12.188;2023-06-24T07:54:33;6.82;;;4.45;;
34828;SDS011;21042;47.620;12.188;2023-06-24T07:57:00;7.13;;;4.70;;
34828;SDS011;21042;47.620;12.188;2023-06-24T08:01:54;8.40;;;4.55;;
34828;SDS011;21042;47.620;12.188;2023-06-24T08:04:21;7.13;;;4.38;;
34828;SDS011;21042;47.620;12.188;2023-06-24T08:06:48;8.48;;;4.63;;
34828;SDS011;21042;47.620;12.188;2023-06-24T08:09:15;10.88;;;5.40;;
34828;SDS011;21042;47.620;12.188;2023-06-24T08:11:43;11.70;;;4.78;;
34828;SDS011;21042;47.620;12.188;2023-06-24T08:16:37;7.90;;;4.50;;
34828;SDS011;21042;47.620;12.188;2023-06-24T08:19:04;7.53;;;4.35;;
34828;SDS011;21042;47.620;12.188;2023-06-24T08:21:30;11.70;;;4.85;;
34828;SDS011;21042;47.620;12.188;2023-06-24T08:23:57;9.82;;;4.65;;
34828;SDS011;21042;47.620;12.188;2023-06-24T08:26:24;5.35;;;4.00;;
34828;SDS011;21042;47.620;12.188;2023-06-24T08:28:51;6.93;;;4.22;;
34828;SDS011;21042;47.620;12.188;2023-06-24T08:31:17;10.15;;;4.15;;
34828;SDS011;21042;47.620;12.188;2023-06-24T08:33:44;5.45;;;4.32;;
34828;SDS011;21042;47.620;12.188;2023-06-24T08:38:38;8.52;;;4.55;;
34828;SDS011;21042;47.620;12.188;2023-06-24T08:41:05;6.97;;;4.47;;
34828;SDS011;21042;47.620;12.188;2023-06-24T08:43:32;7.70;;;4.35;;
34828;SDS011;21042;47.620;12.188;2023-06-24T08:45:59;5.95;;;4.32;;
34828;SDS011;21042;47.620;12.188;2023-06-24T08:48:26;5.40;;;4.05;;
34828;SDS011;21042;47.620;12.188;2023-06-24T08:50:54;6.50;;;4.85;;
34828;SDS011;21042;47.620;12.188;2023-06-24T08:53:24;7.85;;;4.60;;
34828;SDS011;21042;47.620;12.188;2023-06-24T08:55:53;7.82;;;4.32;;
34828;SDS011;21042;47.620;12.188;2023-06-24T09:00:47;6.63;;;4.85;;
34828;SDS011;21042;47.620;12.188;2023-06-24T09:05:41;6.53;;;3.88;;
34828;SDS011;21042;47.620;12.188;2023-06-24T09:08:10;9.00;;;4.53;;
34828;SDS011;21042;47.620;12.188;2023-06-24T09:10:37;6.95;;;4.40;;
34828;SDS011;21042;47.620;12.188;2023-06-24T09:15:32;9.27;;;4.25;;
34828;SDS011;21042;47.620;12.188;2023-06-24T09:18:01;5.80;;;4.53;;
34828;SDS011;21042;47.620;12.188;2023-06-24T09:20:30;8.68;;;4.43;;
34828;SDS011;21042;47.620;12.188;2023-06-24T09:22:58;5.80;;;4.47;;
34828;SDS011;21042;47.620;12.188;2023-06-24T09:25:29;5.78;;;3.80;;
34828;SDS011;21042;47.620;12.188;2023-06-24T09:28:03;5.90;;;4.38;;
34828;SDS011;21042;47.620;12.188;2023-06-24T09:30:29;5.65;;;4.03;;
34828;SDS011;21042;47.620;12.188;2023-06-24T09:32:56;6.38;;;4.35;;
34828;SDS011;21042;47.620;12.188;2023-06-24T09:35:24;7.90;;;4.28;;
34828;SDS011;21042;47.620;12.188;2023-06-24T09:37:55;7.55;;;4.35;;
34828;SDS011;21042;47.620;12.188;2023-06-24T09:40:23;4.03;;;3.58;;
34828;SDS011;21042;47.620;12.188;2023-06-24T09:45:19;5.38;;;3.90;;
34828;SDS011;21042;47.620;12.188;2023-06-24T09:47:47;6.50;;;4.03;;
34828;SDS011;21042;47.620;12.188;2023-06-24T09:50:14;5.70;;;4.35;;
34828;SDS011;21042;47.620;12.188;2023-06-24T09:52:41;9.43;;;4.50;;
34828;SDS011;21042;47.620;12.188;2023-06-24T09:55:12;6.93;;;4.00;;
34828;SDS011;21042;47.620;12.188;2023-06-24T09:57:41;6.82;;;3.90;;
34828;SDS011;21042;47.620;12.188;2023-06-24T10:00:14;6.13;;;3.90;;
34828;SDS011;21042;47.620;12.188;2023-06-24T10:02:41;7.28;;;3.92;;
34828;SDS011;21042;47.620;12.188;2023-06-24T10:05:09;6.63;;;4.10;;
34828;SDS011;21042;47.620;12.188;2023-06-24T10:07:36;5.72;;;3.63;;
34828;SDS011;21042;47.620;12.188;2023-06-24T10:10:04;5.78;;;4.13;;
34828;SDS011;21042;47.620;12.188;2023-06-24T10:12:33;8.30;;;3.72;;
34828;SDS011;21042;47.620;12.188;2023-06-24T10:15:01;5.85;;;3.70;;
34828;SDS011;21042;47.620;12.188;2023-06-24T10:17:29;5.82;;;3.70;;
34828;SDS011;21042;47.620;12.188;2023-06-24T10:19:56;4.32;;;3.00;;
34828;SDS011;21042;47.620;12.188;2023-06-24T10:22:23;7.70;;;3.28;;
34828;SDS011;21042;47.620;12.188;2023-06-24T10:24:52;5.10;;;3.17;;
34828;SDS011;21042;47.620;12.188;2023-06-24T10:27:20;4.57;;;3.10;;
34828;SDS011;21042;47.620;12.188;2023-06-24T10:29:49;5.05;;;2.50;;
34828;SDS011;21042;47.620;12.188;2023-06-24T10:32:17;3.20;;;2.25;;
34828;SDS011;21042;47.620;12.188;2023-06-24T10:34:45;4.22;;;2.42;;
34828;SDS011;21042;47.620;12.188;2023-06-24T10:37:20;5.68;;;3.20;;
34828;SDS011;21042;47.620;12.188;2023-06-24T10:40:00;3.75;;;2.58;;
34828;SDS011;21042;47.620;12.188;2023-06-24T10:42:29;3.70;;;2.70;;
34828;SDS011;21042;47.620;12.188;2023-06-24T10:44:58;2.53;;;2.30;;
34828;SDS011;21042;47.620;12.188;2023-06-24T10:47:27;3.85;;;2.55;;
34828;SDS011;21042;47.620;12.188;2023-06-24T10:49:54;3.95;;;2.80;;
34828;SDS011;21042;47.620;12.188;2023-06-24T10:54:49;3.53;;;2.70;;
34828;SDS011;21042;47.620;12.188;2023-06-24T10:57:24;4.15;;;2.97;;
34828;SDS011;21042;47.620;12.188;2023-06-24T10:59:53;3.88;;;2.65;;
34828;SDS011;21042;47.620;12.188;2023-06-24T11:02:21;3.95;;;2.50;;
34828;SDS011;21042;47.620;12.188;2023-06-24T11:04:53;5.30;;;2.38;;
34828;SDS011;21042;47.620;12.188;2023-06-24T11:07:21;2.85;;;2.22;;
34828;SDS011;21042;47.620;12.188;2023-06-24T11:12:25;3.50;;;2.50;;
34828;SDS011;21042;47.620;12.188;2023-06-24T11:14:57;5.55;;;2.42;;
34828;SDS011;21042;47.620;12.188;2023-06-24T11:17:25;4.55;;;2.92;;
34828;SDS011;21042;47.620;12.188;2023-06-24T11:19:53;4.55;;;3.08;;
34828;SDS011;21042;47.620;12.188;2023-06-24T11:22:21;3.88;;;2.67;;
34828;SDS011;21042;47.620;12.188;2023-06-24T11:24:48;5.75;;;2.67;;
34828;SDS011;21042;47.620;12.188;2023-06-24T11:27:15;4.65;;;2.40;;
34828;SDS011;21042;47.620;12.188;2023-06-24T11:32:10;4.95;;;2.58;;
34828;SDS011;21042;47.620;12.188;2023-06-24T11:34:37;3.10;;;2.45;;
34828;SDS011;21042;47.620;12.188;2023-06-24T11:37:17;3.67;;;2.70;;
34828;SDS011;21042;47.620;12.188;2023-06-24T11:39:44;3.33;;;2.80;;
34828;SDS011;21042;47.620;12.188;2023-06-24T11:42:26;5.25;;;2.45;;
34828;SDS011;21042;47.620;12.188;2023-06-24T11:44:59;3.42;;;2.33;;
34828;SDS011;21042;47.620;12.188;2023-06-24T11:47:26;2.90;;;2.38;;
34828;SDS011;21042;47.620;12.188;2023-06-24T11:49:57;3.60;;;2.67;;
34828;SDS011;21042;47.620;12.188;2023-06-24T11:52:41;4.43;;;2.65;;
34828;SDS011;21042;47.620;12.188;2023-06-24T11:55:20;2.83;;;2.45;;
34828;SDS011;21042;47.620;12.188;2023-06-24T12:00:19;3.40;;;2.70;;
34828;SDS011;21042;47.620;12.188;2023-06-24T12:02:49;4.50;;;2.70;;
34828;SDS011;21042;47.620;12.188;2023-06-24T12:05:24;4.40;;;3.08;;
34828;SDS011;21042;47.620;12.188;2023-06-24T12:07:55;3.80;;;2.58;;
34828;SDS011;21042;47.620;12.188;2023-06-24T12:10:23;5.40;;;2.70;;
34828;SDS011;21042;47.620;12.188;2023-06-24T12:12:50;2.90;;;2.47;;
34828;SDS011;21042;47.620;12.188;2023-06-24T12:17:44;3.83;;;3.20;;
34828;SDS011;21042;47.620;12.188;2023-06-24T12:20:11;3.78;;;2.65;;
34828;SDS011;21042;47.620;12.188;2023-06-24T12:22:40;5.93;;;2.55;;
34828;SDS011;21042;47.620;12.188;2023-06-24T12:25:07;3.75;;;2.80;;
34828;SDS011;21042;47.620;12.188;2023-06-24T12:27:35;3.25;;;2.30;;
34828;SDS011;21042;47.620;12.188;2023-06-24T12:32:28;3.35;;;2.72;;
34828;SDS011;21042;47.620;12.188;2023-06-24T12:34:55;3.55;;;3.03;;
34828;SDS011;21042;47.620;12.188;2023-06-24T12:37:22;3.65;;;2.80;;
34828;SDS011;21042;47.620;12.188;2023-06-24T12:39:49;8.18;;;2.90;;
34828;SDS011;21042;47.620;12.188;2023-06-24T12:42:17;3.15;;;2.50;;
34828;SDS011;21042;47.620;12.188;2023-06-24T12:47:10;3.38;;;2.83;;
34828;SDS011;21042;47.620;12.188;2023-06-24T12:49:37;4.20;;;3.00;;
34828;SDS011;21042;47.620;12.188;2023-06-24T12:52:04;3.60;;;2.70;;
34828;SDS011;21042;47.620;12.188;2023-06-24T12:54:31;3.47;;;3.15;;
34828;SDS011;21042;47.620;12.188;2023-06-24T12:56:57;3.55;;;2.88;;
34828;SDS011;21042;47.620;12.188;2023-06-24T12:59:38;4.80;;;2.65;;
34828;SDS011;21042;47.620;12.188;2023-06-24T13:02:05;3.00;;;2.70;;
34828;SDS011;21042;47.620;12.188;2023-06-24T13:04:32;4.20;;;2.88;;
34828;SDS011;21042;47.620;12.188;2023-06-24T13:06:59;5.82;;;4.18;;
34828;SDS011;21042;47.620;12.188;2023-06-24T13:09:26;4.22;;;2.63;;
34828;SDS011;21042;47.620;12.188;2023-06-24T13:11:53;2.60;;;2.40;;
34828;SDS011;21042;47.620;12.188;2023-06-24T13:14:19;3.40;;;2.90;;
34828;SDS011;21042;47.620;12.188;2023-06-24T13:16:46;4.05;;;3.08;;
34828;SDS011;21042;47.620;12.188;2023-06-24T13:19:13;5.32;;;2.70;;
34828;SDS011;21042;47.620;12.188;2023-06-24T13:21:42;5.45;;;2.78;;
34828;SDS011;21042;47.620;12.188;2023-06-24T13:24:08;4.43;;;2.90;;
34828;SDS011;21042;47.620;12.188;2023-06-24T13:26:35;4.90;;;2.97;;
34828;SDS011;21042;47.620;12.188;2023-06-24T13:29:02;4.45;;;3.38;;
34828;SDS011;21042;47.620;12.188;2023-06-24T13:33:56;4.00;;;2.60;;
34828;SDS011;21042;47.620;12.188;2023-06-24T13:36:30;3.33;;;2.72;;
34828;SDS011;21042;47.620;12.188;2023-06-24T13:38:58;3.10;;;2.60;;
34828;SDS011;21042;47.620;12.188;2023-06-24T13:41:25;3.70;;;2.90;;
34828;SDS011;21042;47.620;12.188;2023-06-24T13:43:56;3.78;;;2.53;;
34828;SDS011;21042;47.620;12.188;2023-06-24T13:46:23;4.15;;;3.05;;
34828;SDS011;21042;47.620;12.188;2023-06-24T13:48:50;3.38;;;2.60;;
34828;SDS011;21042;47.620;12.188;2023-06-24T13:53:44;4.22;;;3.13;;
34828;SDS011;21042;47.620;12.188;2023-06-24T13:56:11;4.43;;;3.10;;
34828;SDS011;21042;47.620;12.188;2023-06-24T14:01:04;5.07;;;3.50;;
34828;SDS011;21042;47.620;12.188;2023-06-24T14:03:31;4.10;;;3.20;;
34828;SDS011;21042;47.620;12.188;2023-06-24T14:05:58;4.00;;;2.75;;
34828;SDS011;21042;47.620;12.188;2023-06-24T14:08:27;4.53;;;2.83;;
34828;SDS011;21042;47.620;12.188;2023-06-24T14:10:56;4.25;;;3.17;;
34828;SDS011;21042;47.620;12.188;2023-06-24T14:13:23;3.08;;;2.55;;
34828;SDS011;21042;47.620;12.188;2023-06-24T14:18:16;3.15;;;2.83;;
34828;SDS011;21042;47.620;12.188;2023-06-24T14:20:43;3.72;;;2.95;;
34828;SDS011;21042;47.620;12.188;2023-06-24T14:25:37;3.55;;;2.85;;
34828;SDS011;21042;47.620;12.188;2023-06-24T14:28:04;6.65;;;3.20;;
34828;SDS011;21042;47.620;12.188;2023-06-24T14:30:31;3.15;;;2.72;;
34828;SDS011;21042;47.620;12.188;2023-06-24T14:32:59;4.18;;;3.08;;
34828;SDS011;21042;47.620;12.188;2023-06-24T14:35:26;4.45;;;3.28;;
34828;SDS011;21042;47.620;12.188;2023-06-24T14:37:53;4.78;;;2.83;;
34828;SDS011;21042;47.620;12.188;2023-06-24T14:40:20;4.07;;;2.65;;
34828;SDS011;21042;47.620;12.188;2023-06-24T14:42:47;3.97;;;3.05;;
34828;SDS011;21042;47.620;12.188;2023-06-24T14:45:13;2.97;;;2.67;;
34828;SDS011;21042;47.620;12.188;2023-06-24T14:47:40;4.28;;;2.92;;
34828;SDS011;21042;47.620;12.188;2023-06-24T14:50:07;3.90;;;2.78;;
34828;SDS011;21042;47.620;12.188;2023-06-24T14:52:34;8.60;;;3.13;;
34828;SDS011;21042;47.620;12.188;2023-06-24T14:55:01;2.78;;;2.50;;
34828;SDS011;21042;47.620;12.188;2023-06-24T14:59:54;3.28;;;2.53;;
34828;SDS011;21042;47.620;12.188;2023-06-24T15:02:21;4.28;;;3.00;;
34828;SDS011;21042;47.620;12.188;2023-06-24T15:04:48;3.13;;;2.75;;
34828;SDS011;21042;47.620;12.188;2023-06-24T15:07:15;4.25;;;3.13;;
34828;SDS011;21042;47.620;12.188;2023-06-24T15:12:09;4.30;;;3.13;;
34828;SDS011;21042;47.620;12.188;2023-06-24T15:14:36;3.58;;;2.92;;
34828;SDS011;21042;47.620;12.188;2023-06-24T15:19:30;8.02;;;2.90;;
34828;SDS011;21042;47.620;12.188;2023-06-24T15:21:57;3.35;;;2.88;;
34828;SDS011;21042;47.620;12.188;2023-06-24T15:24:24;4.93;;;2.78;;
34828;SDS011;21042;47.620;12.188;2023-06-24T15:26:50;4.00;;;3.10;;
34828;SDS011;21042;47.620;12.188;2023-06-24T15:29:17;4.18;;;3.15;;
34828;SDS011;21042;47.620;12.188;2023-06-24T15:31:44;6.03;;;3.05;;
34828;SDS011;21042;47.620;12.188;2023-06-24T15:34:11;5.88;;;3.53;;
34828;SDS011;21042;47.620;12.188;2023-06-24T15:36:38;5.15;;;3.03;;
34828;SDS011;21042;47.620;12.188;2023-06-24T15:39:06;5.93;;;3.40;;
34828;SDS011;21042;47.620;12.188;2023-06-24T15:41:33;5.13;;;3.50;;
34828;SDS011;21042;47.620;12.188;2023-06-24T15:44:04;4.45;;;2.78;;
34828;SDS011;21042;47.620;12.188;2023-06-24T15:46:31;4.97;;;2.92;;
34828;SDS011;21042;47.620;12.188;2023-06-24T15:48:58;4.22;;;3.13;;
34828;SDS011;21042;47.620;12.188;2023-06-24T15:51:24;4.57;;;2.90;;
34828;SDS011;21042;47.620;12.188;2023-06-24T15:53:51;4.68;;;3.00;;
34828;SDS011;21042;47.620;12.188;2023-06-24T15:56:18;5.03;;;3.42;;
34828;SDS011;21042;47.620;12.188;2023-06-24T15:58:45;6.05;;;3.22;;
34828;SDS011;21042;47.620;12.188;2023-06-24T16:01:13;6.50;;;3.22;;
34828;SDS011;21042;47.620;12.188;2023-06-24T16:03:40;4.05;;;3.10;;
34828;SDS011;21042;47.620;12.188;2023-06-24T16:08:33;5.57;;;3.53;;